sensor_id;sensor_type;location;lat;lon;timestamp;temperature;humidity
39675;DHT22;27790;50.840;4.386;2023-07-29T00:01:20;20.90;99.90
39675;DHT22;27790;50.840;4.386;2023-07-29T00:03:46;20.90;99.90
39675;DHT22;27790;50.840;4.386;2023-07-29T00:06:11;20.90;99.90
39675;DHT22;27790;50.840;4.386;2023-07-29T00:08:37;20.90;99.90
39675;DHT22;27790;50.840;4.386;2023-07-29T00:11:03;20.80;99.90
39675;DHT22;27790;50.840;4.386;2023-07-29T00:13:28;20.70;99.90
39675;DHT22;27790;50.840;4.386;2023-07-29T00:15:54;20.70;99.90
39675;DHT22;27790;50.840;4.386;2023-07-29T00:18:21;20.60;99.90
39675;DHT22;27790;50.840;4.386;2023-07-29T00:20:47;20.50;99.90
39675;DHT22;27790;50.840;4.386;2023-07-29T00:23:13;20.50;99.90
39675;DHT22;27790;50.840;4.386;2023-07-29T00:25:39;20.40;99.90
39675;DHT22;27790;50.840;4.386;2023-07-29T00:28:04;20.40;99.90
39675;DHT22;27790;50.840;4.386;2023-07-29T00:30:30;20.30;99.90
39675;DHT22;27790;50.840;4.386;2023-07-29T00:32:55;20.30;99.90
39675;DHT22;27790;50.840;4.386;2023-07-29T00:35:21;20.30;99.90
39675;DHT22;27790;50.840;4.386;2023-07-29T00:37:46;20.20;99.90
39675;DHT22;27790;50.840;4.386;2023-07-29T00:40:15;20.20;99.90
39675;DHT22;27790;50.840;4.386;2023-07-29T00:42:42;20.20;99.90
39675;DHT22;27790;50.840;4.386;2023-07-29T00:45:09;20.20;99.90
39675;DHT22;27790;50.840;4.386;2023-07-29T00:47:34;20.10;99.90
39675;DHT22;27790;50.840;4.386;2023-07-29T00:50:00;20.10;99.90
39675;DHT22;27790;50.840;4.386;2023-07-29T00:52:26;20.10;99.90
39675;DHT22;27790;50.840;4.386;2023-07-29T00:54:52;20.10;99.90
39675;DHT22;27790;50.840;4.386;2023-07-29T00:57:18;20.10;99.90
39675;DHT22;27790;50.840;4.386;2023-07-29T00:59:44;20.00;99.90
39675;DHT22;27790;50.840;4.386;2023-07-29T01:02:10;20.00;99.90
39675;DHT22;27790;50.840;4.386;2023-07-29T01:04:36;20.00;99.90
39675;DHT22;27790;50.840;4.386;2023-07-29T01:07:24;20.00;99.90
39675;DHT22;27790;50.840;4.386;2023-07-29T01:12:51;20.00;99.90
39675;DHT22;27790;50.840;4.386;2023-07-29T01:15:54;20.00;99.90
39675;DHT22;27790;50.840;4.386;2023-07-29T01:18:24;19.90;99.90
39675;DHT22;27790;50.840;4.386;2023-07-29T01:20:53;19.90;99.90
39675;DHT22;27790;50.840;4.386;2023-07-29T01:23:30;20.00;99.90
39675;DHT22;27790;50.840;4.386;2023-07-29T01:25:56;19.90;99.90
39675;DHT22;27790;50.840;4.386;2023-07-29T01:28:21;19.90;99.90
39675;DHT22;27790;50.840;4.386;2023-07-29T01:30:49;19.90;99.90
39675;DHT22;27790;50.840;4.386;2023-07-29T01:33:16;19.80;99.90
39675;DHT22;27790;50.840;4.386;2023-07-29T01:35:47;19.80;99.90
39675;DHT22;27790;50.840;4.386;2023-07-29T01:38:52;19.80;99.90
39675;DHT22;27790;50.840;4.386;2023-07-29T01:41:19;19.80;99.90
39675;DHT22;27790;50.840;4.386;2023-07-29T01:43:46;19.80;99.90
39675;DHT22;27790;50.840;4.386;2023-07-29T01:46:13;19.80;99.90
39675;DHT22;27790;50.840;4.386;2023-07-29T01:48:39;19.80;99.90
39675;DHT22;27790;50.840;4.386;2023-07-29T01:51:06;19.80;99.90
39675;DHT22;27790;50.840;4.386;2023-07-29T01:53:32;19.80;99.90
39675;DHT22;27790;50.840;4.386;2023-07-29T01:55:58;19.80;99.90
39675;DHT22;27790;50.840;4.386;2023-07-29T01:58:24;19.80;99.90
39675;DHT22;27790;50.840;4.386;2023-07-29T02:00:49;19.70;99.90
39675;DHT22;27790;50.840;4.386;2023-07-29T02:03:15;19.70;99.90
39675;DHT22;27790;50.840;4.386;2023-07-29T02:05:41;19.70;99.90
39675;DHT22;27790;50.840;4.386;2023-07-29T02:08:09;19.70;99.90
39675;DHT22;27790;50.840;4.386;2023-07-29T02:10:35;19.70;99.90
39675;DHT22;27790;50.840;4.386;2023-07-29T02:13:01;19.70;99.90
39675;DHT22;27790;50.840;4.386;2023-07-29T02:15:26;19.60;99.90
39675;DHT22;27790;50.840;4.386;2023-07-29T02:17:53;19.60;99.90
39675;DHT22;27790;50.840;4.386;2023-07-29T02:20:18;19.70;99.90
39675;DHT22;27790;50.840;4.386;2023-07-29T02:22:44;19.70;99.90
39675;DHT22;27790;50.840;4.386;2023-07-29T02:25:10;19.70;99.90
39675;DHT22;27790;50.840;4.386;2023-07-29T02:27:36;19.60;99.90
39675;DHT22;27790;50.840;4.386;2023-07-29T02:30:02;19.60;99.90
39675;DHT22;27790;50.840;4.386;2023-07-29T02:32:28;19.70;99.90
39675;DHT22;27790;50.840;4.386;2023-07-29T02:34:53;19.60;99.90
39675;DHT22;27790;50.840;4.386;2023-07-29T02:37:19;19.60;99.90
39675;DHT22;27790;50.840;4.386;2023-07-29T02:39:45;19.60;99.90
39675;DHT22;27790;50.840;4.386;2023-07-29T02:42:11;19.60;99.90
39675;DHT22;27790;50.840;4.386;2023-07-29T02:44:37;19.60;99.90
39675;DHT22;27790;50.840;4.386;2023-07-29T02:47:03;19.60;99.90
39675;DHT22;27790;50.840;4.386;2023-07-29T02:49:28;19.60;99.90
39675;DHT22;27790;50.840;4.386;2023-07-29T02:51:54;19.60;99.90
39675;DHT22;27790;50.840;4.386;2023-07-29T02:54:20;19.60;99.90
39675;DHT22;27790;50.840;4.386;2023-07-29T02:56:45;19.60;99.90
39675;DHT22;27790;50.840;4.386;2023-07-29T02:59:11;19.60;99.90
39675;DHT22;27790;50.840;4.386;2023-07-29T03:01:36;19.60;99.90
39675;DHT22;27790;50.840;4.386;2023-07-29T03:04:02;19.60;99.90
39675;DHT22;27790;50.840;4.386;2023-07-29T03:06:28;19.60;99.90
39675;DHT22;27790;50.840;4.386;2023-07-29T03:08:54;19.60;99.90
39675;DHT22;27790;50.840;4.386;2023-07-29T03:11:19;19.60;99.90
39675;DHT22;27790;50.840;4.386;2023-07-29T03:13:45;19.60;99.90
39675;DHT22;27790;50.840;4.386;2023-07-29T03:16:14;19.60;99.90
39675;DHT22;27790;50.840;4.386;2023-07-29T03:18:40;19.50;99.90
39675;DHT22;27790;50.840;4.386;2023-07-29T03:21:06;19.60;99.90
39675;DHT22;27790;50.840;4.386;2023-07-29T03:23:32;19.50;99.90
39675;DHT22;27790;50.840;4.386;2023-07-29T03:25:59;19.50;99.90
39675;DHT22;27790;50.840;4.386;2023-07-29T03:28:26;19.50;99.90
39675;DHT22;27790;50.840;4.386;2023-07-29T03:30:56;19.50;99.90
39675;DHT22;27790;50.840;4.386;2023-07-29T03:33:22;19.40;99.90
39675;DHT22;27790;50.840;4.386;2023-07-29T03:35:48;19.40;99.90
39675;DHT22;27790;50.840;4.386;2023-07-29T03:38:14;19.40;99.90
39675;DHT22;27790;50.840;4.386;2023-07-29T03:40:41;19.40;99.90
39675;DHT22;27790;50.840;4.386;2023-07-29T03:43:07;19.40;99.90
39675;DHT22;27790;50.840;4.386;2023-07-29T03:45:33;19.40;99.90
39675;DHT22;27790;50.840;4.386;2023-07-29T03:47:59;19.40;99.90
39675;DHT22;27790;50.840;4.386;2023-07-29T03:50:25;19.40;99.90
39675;DHT22;27790;50.840;4.386;2023-07-29T03:52:50;19.40;99.90
39675;DHT22;27790;50.840;4.386;2023-07-29T03:55:16;19.40;99.90
39675;DHT22;27790;50.840;4.386;2023-07-29T03:57:42;19.40;99.90
39675;DHT22;27790;50.840;4.386;2023-07-29T04:00:08;19.40;99.90
39675;DHT22;27790;50.840;4.386;2023-07-29T04:02:34;19.40;99.90
39675;DHT22;27790;50.840;4.386;2023-07-29T04:05:03;19.40;99.90
39675;DHT22;27790;50.840;4.386;2023-07-29T04:07:29;19.40;99.90
39675;DHT22;27790;50.840;4.386;2023-07-29T04:09:55;19.50;99.90
39675;DHT22;27790;50.840;4.386;2023-07-29T04:12:21;19.50;99.90
39675;DHT22;27790;50.840;4.386;2023-07-29T04:14:47;19.50;99.90
39675;DHT22;27790;50.840;4.386;2023-07-29T04:17:12;19.50;99.90
39675;DHT22;27790;50.840;4.386;2023-07-29T04:19:38;19.50;99.90
39675;DHT22;27790;50.840;4.386;2023-07-29T04:22:04;19.50;99.90
39675;DHT22;27790;50.840;4.386;2023-07-29T04:24:29;19.50;99.90
39675;DHT22;27790;50.840;4.386;2023-07-29T04:26:55;19.50;99.90
39675;DHT22;27790;50.840;4.386;2023-07-29T04:29:21;19.50;99.90
39675;DHT22;27790;50.840;4.386;2023-07-29T04:31:48;19.50;99.90
39675;DHT22;27790;50.840;4.386;2023-07-29T04:34:14;19.50;99.90
39675;DHT22;27790;50.840;4.386;2023-07-29T04:36:40;19.50;99.90
39675;DHT22;27790;50.840;4.386;2023-07-29T04:39:05;19.60;99.90
39675;DHT22;27790;50.840;4.386;2023-07-29T04:41:31;19.60;99.90
39675;DHT22;27790;50.840;4.386;2023-07-29T04:43:56;19.60;99.90
39675;DHT22;27790;50.840;4.386;2023-07-29T04:46:22;19.60;99.90
39675;DHT22;27790;50.840;4.386;2023-07-29T04:48:47;19.60;99.90
39675;DHT22;27790;50.840;4.386;2023-07-29T04:51:13;19.60;99.90
39675;DHT22;27790;50.840;4.386;2023-07-29T04:53:39;19.60;99.90
39675;DHT22;27790;50.840;4.386;2023-07-29T04:56:04;19.60;99.90
39675;DHT22;27790;50.840;4.386;2023-07-29T04:58:30;19.60;99.90
39675;DHT22;27790;50.840;4.386;2023-07-29T05:01:00;19.60;99.90
39675;DHT22;27790;50.840;4.386;2023-07-29T05:03:25;19.60;99.90
39675;DHT22;27790;50.840;4.386;2023-07-29T05:05:51;19.60;99.90
39675;DHT22;27790;50.840;4.386;2023-07-29T05:08:18;19.60;99.90
39675;DHT22;27790;50.840;4.386;2023-07-29T05:10:44;19.60;99.90
39675;DHT22;27790;50.840;4.386;2023-07-29T05:13:13;19.60;99.90
39675;DHT22;27790;50.840;4.386;2023-07-29T05:15:39;19.60;99.90
39675;DHT22;27790;50.840;4.386;2023-07-29T05:18:04;19.80;99.90
39675;DHT22;27790;50.840;4.386;2023-07-29T05:20:30;20.50;99.90
39675;DHT22;27790;50.840;4.386;2023-07-29T05:22:55;21.10;99.90
39675;DHT22;27790;50.840;4.386;2023-07-29T05:25:21;21.60;99.90
39675;DHT22;27790;50.840;4.386;2023-07-29T05:27:47;22.00;99.90
39675;DHT22;27790;50.840;4.386;2023-07-29T05:30:12;22.60;99.90
39675;DHT22;27790;50.840;4.386;2023-07-29T05:32:38;22.60;99.90
39675;DHT22;27790;50.840;4.386;2023-07-29T05:35:03;22.30;99.90
39675;DHT22;27790;50.840;4.386;2023-07-29T05:37:29;22.10;99.90
39675;DHT22;27790;50.840;4.386;2023-07-29T05:39:55;21.80;99.90
39675;DHT22;27790;50.840;4.386;2023-07-29T05:42:20;21.70;99.90
39675;DHT22;27790;50.840;4.386;2023-07-29T05:44:46;21.90;99.90
39675;DHT22;27790;50.840;4.386;2023-07-29T05:47:11;22.10;99.90
39675;DHT22;27790;50.840;4.386;2023-07-29T05:49:37;22.20;99.90
39675;DHT22;27790;50.840;4.386;2023-07-29T05:52:03;22.40;99.90
39675;DHT22;27790;50.840;4.386;2023-07-29T05:54:28;22.50;99.90
39675;DHT22;27790;50.840;4.386;2023-07-29T05:56:54;22.60;99.90
39675;DHT22;27790;50.840;4.386;2023-07-29T05:59:19;22.60;99.90
39675;DHT22;27790;50.840;4.386;2023-07-29T06:01:45;22.50;99.90
39675;DHT22;27790;50.840;4.386;2023-07-29T06:04:11;22.30;99.90
39675;DHT22;27790;50.840;4.386;2023-07-29T06:06:36;22.20;99.90
39675;DHT22;27790;50.840;4.386;2023-07-29T06:09:02;22.10;99.90
39675;DHT22;27790;50.840;4.386;2023-07-29T06:11:27;22.00;99.90
39675;DHT22;27790;50.840;4.386;2023-07-29T06:13:53;22.00;99.90
39675;DHT22;27790;50.840;4.386;2023-07-29T06:16:18;22.10;99.90
39675;DHT22;27790;50.840;4.386;2023-07-29T06:18:45;22.30;99.90
39675;DHT22;27790;50.840;4.386;2023-07-29T06:21:11;22.50;99.90
39675;DHT22;27790;50.840;4.386;2023-07-29T06:23:43;22.70;99.90
39675;DHT22;27790;50.840;4.386;2023-07-29T06:26:09;22.90;99.90
39675;DHT22;27790;50.840;4.386;2023-07-29T06:28:34;23.00;99.90
39675;DHT22;27790;50.840;4.386;2023-07-29T06:31:00;23.00;99.90
39675;DHT22;27790;50.840;4.386;2023-07-29T06:33:26;23.20;99.90
39675;DHT22;27790;50.840;4.386;2023-07-29T06:35:51;23.30;99.90
39675;DHT22;27790;50.840;4.386;2023-07-29T06:38:17;23.40;99.80
39675;DHT22;27790;50.840;4.386;2023-07-29T06:40:50;23.50;99.90
39675;DHT22;27790;50.840;4.386;2023-07-29T06:43:16;23.60;99.60
39675;DHT22;27790;50.840;4.386;2023-07-29T06:45:42;23.60;99.40
39675;DHT22;27790;50.840;4.386;2023-07-29T06:48:08;23.80;99.10
39675;DHT22;27790;50.840;4.386;2023-07-29T06:50:33;23.80;99.10
39675;DHT22;27790;50.840;4.386;2023-07-29T06:52:59;23.80;98.50
39675;DHT22;27790;50.840;4.386;2023-07-29T06:55:24;23.70;98.30
39675;DHT22;27790;50.840;4.386;2023-07-29T06:57:50;23.60;98.70
39675;DHT22;27790;50.840;4.386;2023-07-29T07:00:16;23.50;98.90
39675;DHT22;27790;50.840;4.386;2023-07-29T07:02:41;23.40;99.00
39675;DHT22;27790;50.840;4.386;2023-07-29T07:05:07;23.30;99.30
39675;DHT22;27790;50.840;4.386;2023-07-29T07:07:32;23.10;99.50
39675;DHT22;27790;50.840;4.386;2023-07-29T07:09:58;22.90;99.50
39675;DHT22;27790;50.840;4.386;2023-07-29T07:12:24;22.70;99.90
39675;DHT22;27790;50.840;4.386;2023-07-29T07:14:49;22.60;99.90
39675;DHT22;27790;50.840;4.386;2023-07-29T07:17:15;22.60;99.90
39675;DHT22;27790;50.840;4.386;2023-07-29T07:19:40;22.60;99.90
39675;DHT22;27790;50.840;4.386;2023-07-29T07:22:06;22.50;99.90
39675;DHT22;27790;50.840;4.386;2023-07-29T07:24:32;22.40;99.90
39675;DHT22;27790;50.840;4.386;2023-07-29T07:26:57;22.30;99.90
39675;DHT22;27790;50.840;4.386;2023-07-29T07:29:23;22.20;99.90
39675;DHT22;27790;50.840;4.386;2023-07-29T07:31:53;22.20;99.90
39675;DHT22;27790;50.840;4.386;2023-07-29T07:34:22;22.10;99.90
39675;DHT22;27790;50.840;4.386;2023-07-29T07:36:48;22.00;99.90
39675;DHT22;27790;50.840;4.386;2023-07-29T07:39:14;22.00;99.90
39675;DHT22;27790;50.840;4.386;2023-07-29T07:41:41;22.00;99.90
39675;DHT22;27790;50.840;4.386;2023-07-29T07:44:06;22.00;99.90
39675;DHT22;27790;50.840;4.386;2023-07-29T07:46:32;22.10;99.90
39675;DHT22;27790;50.840;4.386;2023-07-29T07:48:58;22.30;99.90
39675;DHT22;27790;50.840;4.386;2023-07-29T07:51:23;22.60;99.90
39675;DHT22;27790;50.840;4.386;2023-07-29T07:53:49;23.00;99.90
39675;DHT22;27790;50.840;4.386;2023-07-29T07:56:15;23.00;99.90
39675;DHT22;27790;50.840;4.386;2023-07-29T07:58:41;23.00;99.90
39675;DHT22;27790;50.840;4.386;2023-07-29T08:01:07;23.10;99.90
39675;DHT22;27790;50.840;4.386;2023-07-29T08:03:34;23.30;99.90
39675;DHT22;27790;50.840;4.386;2023-07-29T08:06:00;23.50;99.90
39675;DHT22;27790;50.840;4.386;2023-07-29T08:08:26;23.90;99.80
39675;DHT22;27790;50.840;4.386;2023-07-29T08:10:56;24.40;99.20
39675;DHT22;27790;50.840;4.386;2023-07-29T08:13:25;24.80;98.40
39675;DHT22;27790;50.840;4.386;2023-07-29T08:15:52;25.50;98.00
39675;DHT22;27790;50.840;4.386;2023-07-29T08:18:18;25.90;97.30
39675;DHT22;27790;50.840;4.386;2023-07-29T08:20:54;26.00;97.00
39675;DHT22;27790;50.840;4.386;2023-07-29T08:23:21;25.90;96.40
39675;DHT22;27790;50.840;4.386;2023-07-29T08:25:52;25.90;96.30
39675;DHT22;27790;50.840;4.386;2023-07-29T08:28:18;26.00;96.50
39675;DHT22;27790;50.840;4.386;2023-07-29T08:30:43;26.10;96.50
39675;DHT22;27790;50.840;4.386;2023-07-29T08:33:09;26.10;96.20
39675;DHT22;27790;50.840;4.386;2023-07-29T08:35:35;26.30;95.70
39675;DHT22;27790;50.840;4.386;2023-07-29T08:38:01;26.50;95.70
39675;DHT22;27790;50.840;4.386;2023-07-29T08:40:29;26.40;95.30
39675;DHT22;27790;50.840;4.386;2023-07-29T08:42:56;26.40;95.50
39675;DHT22;27790;50.840;4.386;2023-07-29T08:45:24;26.70;95.20
39675;DHT22;27790;50.840;4.386;2023-07-29T08:47:54;27.30;94.50
39675;DHT22;27790;50.840;4.386;2023-07-29T08:50:24;27.80;94.00
39675;DHT22;27790;50.840;4.386;2023-07-29T08:52:51;27.90;93.10
39675;DHT22;27790;50.840;4.386;2023-07-29T08:55:18;27.80;93.20
39675;DHT22;27790;50.840;4.386;2023-07-29T08:57:44;28.40;93.10
39675;DHT22;27790;50.840;4.386;2023-07-29T09:00:11;28.90;92.10
39675;DHT22;27790;50.840;4.386;2023-07-29T09:02:37;29.60;91.40
39675;DHT22;27790;50.840;4.386;2023-07-29T09:05:03;30.20;90.60
39675;DHT22;27790;50.840;4.386;2023-07-29T09:07:29;30.80;89.40
39675;DHT22;27790;50.840;4.386;2023-07-29T09:09:54;31.50;89.30
39675;DHT22;27790;50.840;4.386;2023-07-29T09:12:20;32.20;86.10
39675;DHT22;27790;50.840;4.386;2023-07-29T09:14:46;31.70;86.10
39675;DHT22;27790;50.840;4.386;2023-07-29T09:17:12;30.70;85.00
39675;DHT22;27790;50.840;4.386;2023-07-29T09:19:39;29.90;87.20
39675;DHT22;27790;50.840;4.386;2023-07-29T09:22:05;29.40;87.60
39675;DHT22;27790;50.840;4.386;2023-07-29T09:24:42;29.10;87.80
39675;DHT22;27790;50.840;4.386;2023-07-29T09:27:07;28.80;88.50
39675;DHT22;27790;50.840;4.386;2023-07-29T09:29:35;28.40;90.00
39675;DHT22;27790;50.840;4.386;2023-07-29T09:32:33;28.10;90.30
39675;DHT22;27790;50.840;4.386;2023-07-29T09:34:59;27.90;90.10
39675;DHT22;27790;50.840;4.386;2023-07-29T09:37:25;27.90;90.20
39675;DHT22;27790;50.840;4.386;2023-07-29T09:39:50;27.90;90.40
39675;DHT22;27790;50.840;4.386;2023-07-29T09:42:20;27.60;90.90
39675;DHT22;27790;50.840;4.386;2023-07-29T09:44:48;27.10;91.30
39675;DHT22;27790;50.840;4.386;2023-07-29T09:47:20;26.80;91.90
39675;DHT22;27790;50.840;4.386;2023-07-29T09:49:47;26.60;92.10
39675;DHT22;27790;50.840;4.386;2023-07-29T09:52:15;26.20;92.40
39675;DHT22;27790;50.840;4.386;2023-07-29T09:54:43;25.80;92.70
39675;DHT22;27790;50.840;4.386;2023-07-29T09:57:16;25.50;93.50
39675;DHT22;27790;50.840;4.386;2023-07-29T09:59:43;25.50;94.00
39675;DHT22;27790;50.840;4.386;2023-07-29T10:02:16;25.80;94.20
39675;DHT22;27790;50.840;4.386;2023-07-29T10:04:42;26.20;94.10
39675;DHT22;27790;50.840;4.386;2023-07-29T10:07:09;26.60;94.10
39675;DHT22;27790;50.840;4.386;2023-07-29T10:09:37;26.60;93.10
39675;DHT22;27790;50.840;4.386;2023-07-29T10:12:06;26.50;93.00
39675;DHT22;27790;50.840;4.386;2023-07-29T10:14:32;26.60;93.30
39675;DHT22;27790;50.840;4.386;2023-07-29T10:16:58;26.60;93.80
39675;DHT22;27790;50.840;4.386;2023-07-29T10:19:25;26.40;94.10
39675;DHT22;27790;50.840;4.386;2023-07-29T10:21:52;26.50;94.00
39675;DHT22;27790;50.840;4.386;2023-07-29T10:24:24;26.70;94.30
39675;DHT22;27790;50.840;4.386;2023-07-29T10:26:57;26.70;93.70
39675;DHT22;27790;50.840;4.386;2023-07-29T10:29:23;26.20;93.80
39675;DHT22;27790;50.840;4.386;2023-07-29T10:31:52;26.00;94.00
39675;DHT22;27790;50.840;4.386;2023-07-29T10:34:19;25.70;94.20
39675;DHT22;27790;50.840;4.386;2023-07-29T10:36:47;25.40;94.80
39675;DHT22;27790;50.840;4.386;2023-07-29T10:39:13;25.10;96.90
39675;DHT22;27790;50.840;4.386;2023-07-29T10:42:00;24.60;98.50
39675;DHT22;27790;50.840;4.386;2023-07-29T10:47:14;23.90;99.90
39675;DHT22;27790;50.840;4.386;2023-07-29T10:49:41;23.80;99.90
39675;DHT22;27790;50.840;4.386;2023-07-29T10:52:06;23.70;99.90
39675;DHT22;27790;50.840;4.386;2023-07-29T10:54:50;23.70;99.90
39675;DHT22;27790;50.840;4.386;2023-07-29T10:57:30;23.70;99.90
39675;DHT22;27790;50.840;4.386;2023-07-29T10:59:56;23.90;99.90
39675;DHT22;27790;50.840;4.386;2023-07-29T11:02:32;24.00;99.90
39675;DHT22;27790;50.840;4.386;2023-07-29T11:04:59;23.70;99.90
39675;DHT22;27790;50.840;4.386;2023-07-29T11:07:26;23.60;99.90
39675;DHT22;27790;50.840;4.386;2023-07-29T11:09:53;23.50;99.90
39675;DHT22;27790;50.840;4.386;2023-07-29T11:12:47;23.50;99.90
39675;DHT22;27790;50.840;4.386;2023-07-29T11:15:22;23.50;99.90
39675;DHT22;27790;50.840;4.386;2023-07-29T11:17:57;23.40;99.90
39675;DHT22;27790;50.840;4.386;2023-07-29T11:20:31;23.40;99.90
39675;DHT22;27790;50.840;4.386;2023-07-29T11:22:59;23.40;99.90
39675;DHT22;27790;50.840;4.386;2023-07-29T11:25:27;23.40;99.90
39675;DHT22;27790;50.840;4.386;2023-07-29T11:27:54;23.40;99.90
39675;DHT22;27790;50.840;4.386;2023-07-29T11:30:20;23.30;99.90
39675;DHT22;27790;50.840;4.386;2023-07-29T11:32:46;23.30;99.90
39675;DHT22;27790;50.840;4.386;2023-07-29T11:35:14;23.50;99.90
39675;DHT22;27790;50.840;4.386;2023-07-29T11:37:42;23.70;99.90
39675;DHT22;27790;50.840;4.386;2023-07-29T11:40:08;24.00;99.90
39675;DHT22;27790;50.840;4.386;2023-07-29T11:42:37;24.20;99.90
39675;DHT22;27790;50.840;4.386;2023-07-29T11:45:04;24.60;99.90
39675;DHT22;27790;50.840;4.386;2023-07-29T11:47:32;24.80;99.90
39675;DHT22;27790;50.840;4.386;2023-07-29T11:50:02;25.00;99.90
39675;DHT22;27790;50.840;4.386;2023-07-29T11:52:28;25.00;99.90
39675;DHT22;27790;50.840;4.386;2023-07-29T11:54:54;25.20;99.90
39675;DHT22;27790;50.840;4.386;2023-07-29T11:57:20;25.30;99.80
39675;DHT22;27790;50.840;4.386;2023-07-29T11:59:46;25.30;99.20
39675;DHT22;27790;50.840;4.386;2023-07-29T12:02:14;25.20;98.70
39675;DHT22;27790;50.840;4.386;2023-07-29T12:04:41;25.10;99.60
39675;DHT22;27790;50.840;4.386;2023-07-29T12:07:07;24.90;99.70
39675;DHT22;27790;50.840;4.386;2023-07-29T12:09:34;24.80;99.90
39675;DHT22;27790;50.840;4.386;2023-07-29T12:12:01;24.60;99.90
39675;DHT22;27790;50.840;4.386;2023-07-29T12:14:29;24.20;99.90
39675;DHT22;27790;50.840;4.386;2023-07-29T12:16:55;23.90;99.90
39675;DHT22;27790;50.840;4.386;2023-07-29T12:19:21;23.60;99.90
39675;DHT22;27790;50.840;4.386;2023-07-29T12:21:48;23.40;99.90
39675;DHT22;27790;50.840;4.386;2023-07-29T12:24:14;23.40;99.90
39675;DHT22;27790;50.840;4.386;2023-07-29T12:26:42;23.40;99.90
39675;DHT22;27790;50.840;4.386;2023-07-29T12:29:18;23.40;99.90
39675;DHT22;27790;50.840;4.386;2023-07-29T12:31:46;23.20;99.90
39675;DHT22;27790;50.840;4.386;2023-07-29T12:34:21;23.30;99.90
39675;DHT22;27790;50.840;4.386;2023-07-29T12:36:48;23.20;99.90
39675;DHT22;27790;50.840;4.386;2023-07-29T12:39:21;23.20;99.90
39675;DHT22;27790;50.840;4.386;2023-07-29T12:41:48;23.30;99.90
39675;DHT22;27790;50.840;4.386;2023-07-29T12:44:14;23.60;99.90
39675;DHT22;27790;50.840;4.386;2023-07-29T12:46:40;23.70;99.90
39675;DHT22;27790;50.840;4.386;2023-07-29T12:49:06;23.70;99.90
39675;DHT22;27790;50.840;4.386;2023-07-29T12:51:32;23.70;99.90
39675;DHT22;27790;50.840;4.386;2023-07-29T12:53:57;23.80;99.90
39675;DHT22;27790;50.840;4.386;2023-07-29T12:56:23;23.90;99.90
39675;DHT22;27790;50.840;4.386;2023-07-29T12:58:48;24.10;99.90
39675;DHT22;27790;50.840;4.386;2023-07-29T13:01:15;24.30;99.90
39675;DHT22;27790;50.840;4.386;2023-07-29T13:03:53;24.50;99.90
39675;DHT22;27790;50.840;4.386;2023-07-29T13:06:19;24.60;99.90
39675;DHT22;27790;50.840;4.386;2023-07-29T13:08:44;24.80;99.90
39675;DHT22;27790;50.840;4.386;2023-07-29T13:11:10;24.80;99.90
39675;DHT22;27790;50.840;4.386;2023-07-29T13:13:36;24.80;99.90
39675;DHT22;27790;50.840;4.386;2023-07-29T13:16:01;24.80;99.90
39675;DHT22;27790;50.840;4.386;2023-07-29T13:18:27;24.80;99.90
39675;DHT22;27790;50.840;4.386;2023-07-29T13:20:56;24.80;99.90
39675;DHT22;27790;50.840;4.386;2023-07-29T13:23:22;24.90;99.90
39675;DHT22;27790;50.840;4.386;2023-07-29T13:25:48;25.00;99.90
39675;DHT22;27790;50.840;4.386;2023-07-29T13:28:13;25.00;99.90
39675;DHT22;27790;50.840;4.386;2023-07-29T13:30:39;24.70;99.90
39675;DHT22;27790;50.840;4.386;2023-07-29T13:33:06;24.70;99.90
39675;DHT22;27790;50.840;4.386;2023-07-29T13:35:32;24.80;99.90
39675;DHT22;27790;50.840;4.386;2023-07-29T13:37:58;25.20;99.90
39675;DHT22;27790;50.840;4.386;2023-07-29T13:40:23;25.50;99.90
39675;DHT22;27790;50.840;4.386;2023-07-29T13:42:49;25.50;99.20
39675;DHT22;27790;50.840;4.386;2023-07-29T13:45:15;25.30;99.90
39675;DHT22;27790;50.840;4.386;2023-07-29T13:47:40;25.30;99.90
39675;DHT22;27790;50.840;4.386;2023-07-29T13:50:06;25.20;99.40
39675;DHT22;27790;50.840;4.386;2023-07-29T13:52:33;25.10;99.40
39675;DHT22;27790;50.840;4.386;2023-07-29T13:54:59;25.10;99.20
39675;DHT22;27790;50.840;4.386;2023-07-29T13:57:24;25.10;99.50
39675;DHT22;27790;50.840;4.386;2023-07-29T13:59:50;25.10;99.10
39675;DHT22;27790;50.840;4.386;2023-07-29T14:02:16;25.10;99.10
39675;DHT22;27790;50.840;4.386;2023-07-29T14:04:41;25.00;99.30
39675;DHT22;27790;50.840;4.386;2023-07-29T14:07:07;25.00;99.40
39675;DHT22;27790;50.840;4.386;2023-07-29T14:09:32;25.10;99.70
39675;DHT22;27790;50.840;4.386;2023-07-29T14:11:58;25.50;99.40
39675;DHT22;27790;50.840;4.386;2023-07-29T14:14:23;25.70;99.20
39675;DHT22;27790;50.840;4.386;2023-07-29T14:16:49;25.80;98.10
39675;DHT22;27790;50.840;4.386;2023-07-29T14:19:15;25.80;98.10
39675;DHT22;27790;50.840;4.386;2023-07-29T14:21:40;25.70;98.00
39675;DHT22;27790;50.840;4.386;2023-07-29T14:24:06;25.70;98.80
39675;DHT22;27790;50.840;4.386;2023-07-29T14:26:32;25.70;98.60
39675;DHT22;27790;50.840;4.386;2023-07-29T14:28:57;25.60;98.20
39675;DHT22;27790;50.840;4.386;2023-07-29T14:31:23;25.50;98.60
39675;DHT22;27790;50.840;4.386;2023-07-29T14:33:48;25.40;98.30
39675;DHT22;27790;50.840;4.386;2023-07-29T14:36:17;25.40;98.10
39675;DHT22;27790;50.840;4.386;2023-07-29T14:38:43;25.50;97.80
39675;DHT22;27790;50.840;4.386;2023-07-29T14:41:08;25.40;97.70
39675;DHT22;27790;50.840;4.386;2023-07-29T14:43:34;25.30;97.80
39675;DHT22;27790;50.840;4.386;2023-07-29T14:46:01;25.40;97.50
39675;DHT22;27790;50.840;4.386;2023-07-29T14:48:26;25.50;97.60
39675;DHT22;27790;50.840;4.386;2023-07-29T14:50:52;25.60;97.70
39675;DHT22;27790;50.840;4.386;2023-07-29T14:53:17;25.70;97.60
39675;DHT22;27790;50.840;4.386;2023-07-29T14:55:43;25.60;96.80
39675;DHT22;27790;50.840;4.386;2023-07-29T14:58:09;25.60;96.60
39675;DHT22;27790;50.840;4.386;2023-07-29T15:00:34;25.60;96.90
39675;DHT22;27790;50.840;4.386;2023-07-29T15:03:00;25.70;97.30
39675;DHT22;27790;50.840;4.386;2023-07-29T15:05:25;25.80;97.30
39675;DHT22;27790;50.840;4.386;2023-07-29T15:07:51;25.90;97.00
39675;DHT22;27790;50.840;4.386;2023-07-29T15:10:17;25.90;96.70
39675;DHT22;27790;50.840;4.386;2023-07-29T15:12:43;25.70;96.90
39675;DHT22;27790;50.840;4.386;2023-07-29T15:15:10;25.60;97.40
39675;DHT22;27790;50.840;4.386;2023-07-29T15:17:36;25.60;97.50
39675;DHT22;27790;50.840;4.386;2023-07-29T15:20:02;25.60;97.30
39675;DHT22;27790;50.840;4.386;2023-07-29T15:22:29;25.60;97.60
39675;DHT22;27790;50.840;4.386;2023-07-29T15:24:55;25.50;97.70
39675;DHT22;27790;50.840;4.386;2023-07-29T15:27:20;25.50;97.80
39675;DHT22;27790;50.840;4.386;2023-07-29T15:29:47;25.40;98.10
39675;DHT22;27790;50.840;4.386;2023-07-29T15:32:13;25.40;98.10
39675;DHT22;27790;50.840;4.386;2023-07-29T15:34:38;25.30;97.80